Latest Weather Observations for Maatsuyker Island

IDT60801

Issued at 9:31 am EST Sunday 19 April 2015 (issued every 30 minutes, with the page automatically refreshed every 10 minutes)

About weather observations | Map of weather stations | Latest weather observations for TAS | Other Formats
Station Details ID: 094041 Name: MAATSUYKER ISLAND LIGHTHOUSE Lat: -43.66 Lon: 146.27 Height: 146.5 m
Data from the previous 72 hours. | See also: Recent months at Maatsuyker Island
Date/Time
EST
Temp
°C
App
Temp
°C
Dew
Point
Rel
Hum
%
Delta-T
°C
Wind Press
QNH
hPa
Press
MSL
hPa
Rain
since 9 am
mm
Dir
 
Spd
km/h
Gust
km/h
Spd
kts
Gust
kts
19/09:30am 8.0 -1.6 -1.8 50 3.7 SSW 39 48 21 26 1025.0 - 0.0
19/09:00am 7.8 -1.1 0.5 60 2.9 SSW 37 44 20 24 1024.5 1024.5 11.2
19/08:30am 6.9 -1.7 0.0 61 2.7 SSW 35 52 19 28 1024.1 - 11.2
19/08:24am 6.9 -1.1 1.7 69 2.1 SSW 33 44 18 24 1024.0 - 11.2
19/08:00am 5.7 1.1 1.7 75 1.6 SSW 15 24 8 13 1023.6 - 11.2
19/07:49am 6.0 -0.4 1.2 71 1.9 W 24 56 13 30 1023.8 - 10.4
19/07:43am 6.3 -3.8 0.4 66 2.3 WSW 43 63 23 34 1023.6 - 10.4
19/07:41am 6.4 -3.3 0.8 67 2.2 W 41 63 22 34 1023.2 - 10.4
19/07:37am 6.8 -5.7 0.8 65 2.4 SW 56 63 30 34 1023.1 - 10.4
19/07:34am 7.8 0.1 0.2 58 3.0 SW 30 52 16 28 1022.9 - 10.4
19/07:30am 8.1 1.5 -0.3 55 3.3 SW 24 33 13 18 1022.7 - 10.4
19/07:00am 7.7 0.5 0.4 60 2.9 SW 28 44 15 24 1021.9 - 10.4
19/06:51am 7.6 -0.5 0.9 62 2.7 W 33 46 18 25 1021.8 - 10.4
19/06:47am 7.8 -1.5 0.5 60 2.9 SSW 39 57 21 31 1021.6 - 10.4
19/06:30am 7.2 -2.2 0.1 60 2.8 S 39 52 21 28 1020.6 - 10.4
19/06:00am 7.3 -4.2 2.2 70 2.1 SSW 52 65 28 35 1019.9 1019.9 10.4
19/05:49am 8.0 -3.0 0.5 59 3.0 S 48 67 26 36 1019.3 - 10.4
19/05:30am 8.1 -2.1 -0.3 55 3.3 SSW 43 54 23 29 1019.1 - 10.4
19/05:00am 8.1 -0.8 -1.6 50 3.7 SSW 35 48 19 26 1018.6 - 10.4
19/04:46am 8.0 -2.4 -0.7 54 3.4 SSW 44 50 24 27 1018.2 - 10.4
19/04:39am 7.4 -0.8 -1.2 54 3.3 WSW 32 54 17 29 1018.1 - 10.4
19/04:35am 7.5 -2.5 -1.8 51 3.5 WSW 41 54 22 29 1018.2 - 10.4
19/04:30am 8.5 -1.9 -0.4 53 3.5 SSW 44 54 24 29 1017.9 - 10.4
19/04:00am 8.3 -2.1 -0.3 54 3.4 SSW 44 54 24 29 1017.1 - 10.4
19/03:30am 8.3 -2.0 -3.8 42 4.4 SSW 41 54 22 29 1016.6 - 10.4
19/03:21am 8.5 -2.4 -1.0 51 3.7 SSW 46 65 25 35 1016.2 - 10.4
19/03:00am 8.6 -2.9 -0.2 54 3.5 SSW 50 61 27 33 1015.5 1015.6 10.4
19/02:49am 8.6 -2.0 0.7 57 3.2 SSW 46 67 25 36 1015.3 - 10.4
19/02:30am 8.6 -2.0 -2.2 46 4.1 SSW 44 59 24 32 1015.0 - 10.4
19/02:19am 8.6 -1.9 -1.2 50 3.8 SSW 44 63 24 34 1015.0 - 10.4
19/02:00am 8.8 -3.6 1.6 60 3.0 SSW 56 65 30 35 1014.5 - 10.4
19/01:30am 8.6 -3.5 3.3 69 2.3 SSW 56 65 30 35 1013.8 - 10.4
19/01:00am 7.9 -2.0 4.7 80 1.4 SSW 46 63 25 34 1013.3 - 10.2
19/12:35am 8.4 -2.3 4.6 77 1.7 SSW 50 69 27 37 1012.8 - 10.2
19/12:30am 9.1 -1.1 5.1 76 1.8 SSW 48 57 26 31 1012.6 - 10.2
19/12:00am 8.4 -2.3 4.8 78 1.6 SSW 50 57 27 31 1011.8 1011.8 10.2
 
Date/Time
EST
Temp
°C
App
Temp
°C
Dew
Point
Rel
Hum
%
Delta-T
°C
Wind Press
QNH
hPa
Press
MSL
hPa
Rain
since 9 am
mm
Dir
 
Spd
km/h
Gust
km/h
Spd
kts
Gust
kts
18/11:42pm 8.5 -0.1 6.6 88 0.9 SSW 41 59 22 32 1011.3 - 10.2
18/11:30pm 8.0 -0.7 5.8 86 1.0 SSW 41 50 22 27 1011.2 - 10.2
18/11:15pm 9.2 2.4 5.2 76 1.8 SW 30 50 16 27 1011.0 - 10.2
18/11:00pm 9.1 1.5 5.6 79 1.6 SSW 35 46 19 25 1010.7 - 10.2
18/10:30pm 8.4 1.6 5.1 80 1.5 WSW 30 43 16 23 1010.3 - 10.2
18/10:16pm 8.1 -0.5 4.7 79 1.5 WSW 39 57 21 31 1010.0 - 10.2
18/10:00pm 8.9 -0.4 5.9 81 1.4 W 44 63 24 34 1009.8 - 10.2
18/09:40pm 9.6 1.2 5.7 76 1.8 W 39 57 21 31 1008.8 - 10.2
18/09:30pm 9.8 2.3 6.2 78 1.7 W 35 44 19 24 1008.7 - 10.2
18/09:23pm 9.7 2.8 6.5 80 1.5 W 32 52 17 28 1008.6 - 10.2
18/09:08pm 10.1 -1.3 4.8 69 2.4 WNW 54 72 29 39 1007.9 - 10.2
18/09:00pm 10.5 -1.7 5.5 71 2.3 NW 59 67 32 36 1007.1 1007.1 10.2
18/08:30pm 10.4 -1.9 5.2 70 2.4 WNW 59 67 32 36 1006.9 - 10.2
18/08:00pm 10.5 -1.9 6.3 75 2.0 NW 61 69 33 37 1006.3 - 10.2
18/07:30pm 10.7 -2.5 6.3 74 2.1 NW 65 72 35 39 1005.3 - 10.2
18/07:00pm 10.5 -3.2 5.8 72 2.2 NW 67 72 36 39 1004.7 - 10.2
18/06:30pm 10.4 -2.8 6.2 75 2.0 NW 65 74 35 40 1004.5 - 10.2
18/06:16pm 10.3 -2.3 7.2 81 1.5 NW 63 67 34 36 1004.0 - 10.2
18/06:00pm 9.4 0.5 7.7 89 0.8 NNW 44 57 24 31 1004.0 1004.0 10.2
18/05:42pm 9.3 0.1 7.9 91 0.7 NNW 46 57 25 31 1003.5 - 10.2
18/05:37pm 9.0 0.1 7.5 90 0.7 NW 44 63 24 34 1004.2 - 10.2
18/05:30pm 8.5 -1.3 7.0 90 0.7 NW 48 63 26 34 1004.1 - 9.8
18/05:19pm 8.9 -1.5 7.9 93 0.5 WNW 52 76 28 41 1004.1 - 7.8
18/05:17pm 9.4 0.2 8.0 91 0.7 NW 46 54 25 29 1004.3 - 7.8
18/05:00pm 9.4 1.4 7.5 88 0.9 NNW 39 54 21 29 1003.5 - 7.8
18/04:33pm 9.1 2.4 8.1 93 0.5 NNW 33 52 18 28 1003.6 - 7.8
18/04:30pm 9.3 2.9 8.5 95 0.4 NNW 32 43 17 23 1003.9 - 7.8
18/04:00pm 9.1 0.8 7.9 92 0.6 NNW 41 54 22 29 1003.5 - 7.6
18/03:30pm 9.4 -1.3 8.2 92 0.6 NW 54 63 29 34 1003.2 - 6.4
18/03:00pm 9.3 -0.8 7.6 89 0.8 W 50 61 27 33 1002.8 1002.7 5.0
18/02:30pm 9.2 -2.6 7.3 88 0.9 NW 59 69 32 37 1002.7 - 4.0
18/02:00pm 9.7 -2.1 7.6 87 1.0 NW 59 69 32 37 1002.7 - 3.2
18/01:30pm 9.5 -2.3 7.6 88 0.9 NW 59 69 32 37 1002.4 - 2.4
18/01:00pm 9.5 -3.1 7.2 85 1.1 WNW 63 72 34 39 1002.3 - 1.8
18/12:30pm 9.7 -1.9 8.1 90 0.8 WNW 59 69 32 37 1001.9 - 1.6
18/12:06pm 9.8 -3.8 8.8 93 0.5 WNW 70 98 38 53 1001.8 - 1.2
18/12:01pm 10.7 -4.5 9.9 95 0.4 NW 80 98 43 53 999.8 - 1.0
18/12:00pm 11.1 -2.6 9.9 92 0.6 NW 72 93 39 50 999.6 999.6 0.8
18/11:59am 11.1 -2.6 9.9 92 0.6 NW 72 89 39 48 999.6 - 0.8
18/11:34am 13.6 4.3 9.3 75 2.2 NNW 48 67 26 36 1000.5 - 0.0
18/11:30am 13.5 3.8 9.2 75 2.2 NNW 50 67 27 36 1000.5 - 0.0
18/11:02am 13.6 4.5 8.5 71 2.6 NNW 46 65 25 35 1000.8 - 0.0
18/11:00am 13.6 4.1 8.3 70 2.7 NNW 48 65 26 35 1000.6 - 0.0
18/10:35am 13.6 4.4 8.0 69 2.8 NNW 46 65 25 35 1000.6 - 0.0
18/10:30am 13.5 4.7 8.1 70 2.7 NNW 44 61 24 33 1000.9 - 0.0
18/10:13am 13.7 4.4 7.7 67 3.0 NNW 46 65 25 35 1000.8 - 0.0
18/10:00am 13.7 4.4 7.7 67 3.0 NNW 46 63 25 34 1001.0 - 0.0
18/09:46am 13.8 3.7 7.6 66 3.1 NNW 50 69 27 37 1001.0 - 0.0
18/09:30am 13.7 3.6 7.2 65 3.2 NNW 50 65 27 35 1001.2 - 0.0
18/09:00am 13.9 4.4 6.8 62 3.5 NNW 46 69 25 37 1001.6 1001.6 0.0
18/08:51am 13.6 4.6 7.1 65 3.2 NNW 44 63 24 34 1001.8 - 0.0
18/08:30am 13.4 3.6 6.9 65 3.2 NNW 48 63 26 34 1002.0 - 0.0
18/08:13am 13.3 3.9 7.0 65 3.1 NNW 46 65 25 35 1002.4 - 0.0
18/08:00am 13.2 3.7 6.9 65 3.1 NNW 46 63 25 34 1002.4 - 0.0
18/07:30am 13.0 2.7 6.6 65 3.1 NNW 50 69 27 37 1002.3 - 0.0
18/07:05am 12.9 2.3 7.0 67 2.9 NNW 52 70 28 38 1002.1 - 0.0
18/07:00am 13.0 2.0 6.9 66 3.0 NNW 54 70 29 38 1002.3 - 0.0
18/06:30am 13.0 2.1 7.1 67 2.9 NNW 54 74 29 40 1002.6 - 0.0
18/06:00am 13.1 2.5 6.7 65 3.1 NW 52 78 28 42 1003.0 1002.8 0.0
18/05:30am 13.1 3.6 6.5 64 3.2 NNW 46 67 25 36 1003.2 - 0.0
18/05:00am 12.9 3.5 7.2 68 2.8 NNW 46 69 25 37 1003.7 - 0.0
18/04:46am 12.8 3.4 7.1 68 2.8 NNW 46 65 25 35 1003.8 - 0.0
18/04:30am 12.8 3.0 7.1 68 2.8 NNW 48 65 26 35 1003.9 - 0.0
18/04:10am 12.9 3.0 6.5 65 3.1 NNW 48 69 26 37 1003.8 - 0.0
18/04:00am 12.8 3.8 7.1 68 2.8 NNW 44 59 24 32 1004.2 - 0.0
18/03:46am 12.9 4.0 6.7 66 3.0 NNW 43 63 23 34 1004.2 - 0.0
18/03:30am 12.7 3.6 7.0 68 2.8 NNW 44 59 24 32 1004.3 - 0.0
18/03:16am 12.7 3.8 7.0 68 2.8 NNW 43 61 23 33 1004.5 - 0.0
18/03:00am 12.6 4.2 7.5 71 2.5 NNW 41 52 22 28 1004.9 1004.8 0.0
18/02:30am 12.5 4.9 7.6 72 2.4 NNW 37 52 20 28 1005.1 - 0.0
18/02:00am 12.6 4.6 7.5 71 2.5 NNW 39 48 21 26 1005.7 - 0.0
18/01:30am 12.7 3.7 7.4 70 2.6 NNW 44 59 24 32 1006.1 - 0.0
18/01:17am 12.8 4.9 7.8 71 2.5 NNW 39 57 21 31 1006.6 - 0.0
18/01:00am 12.8 4.1 7.8 71 2.5 NNW 43 54 23 29 1007.0 - 0.0
18/12:30am 12.6 4.7 8.0 73 2.3 NNW 39 50 21 27 1007.2 - 0.0
18/12:04am 12.8 4.6 8.4 74 2.2 NNW 41 59 22 32 1007.7 - 0.0
18/12:00am 12.8 4.1 8.6 75 2.1 NNW 44 59 24 32 1007.6 1007.5 0.0
 
Date/Time
EST
Temp
°C
App
Temp
°C
Dew
Point
Rel
Hum
%
Delta-T
°C
Wind Press
QNH
hPa
Press
MSL
hPa
Rain
since 9 am
mm
Dir
 
Spd
km/h
Gust
km/h
Spd
kts
Gust
kts
17/11:30pm 12.9 3.4 8.5 74 2.2 NNW 48 67 26 36 1007.9 - 0.0
17/11:21pm 12.8 3.3 8.2 73 2.3 NNW 48 67 26 36 1007.9 - 0.0
17/11:00pm 12.9 4.2 7.6 70 2.6 NNW 43 54 23 29 1008.4 - 0.0
17/10:30pm 12.7 5.2 7.9 72 2.4 NNW 37 52 20 28 1009.0 - 0.0
17/10:02pm 12.9 4.0 7.6 70 2.6 NNW 44 65 24 35 1009.3 - 0.0
17/10:00pm 13.0 4.4 8.0 71 2.5 NNW 43 56 23 30 1009.5 - 0.0
17/09:32pm 13.0 4.0 6.6 65 3.1 NNW 43 61 23 33 1009.9 - 0.0
17/09:30pm 13.0 4.0 6.6 65 3.1 NNW 43 54 23 29 1010.1 - 0.0
17/09:29pm 13.0 4.0 6.6 65 3.1 NNW 43 61 23 33 1010.0 - 0.0
17/09:00pm 12.9 2.7 6.9 67 2.9 NNW 50 67 27 36 1009.8 1009.8 0.0
17/08:30pm 12.9 3.6 7.6 70 2.6 NNW 46 59 25 32 1010.2 - 0.0
17/08:00pm 13.0 2.2 7.5 69 2.7 NNW 54 69 29 37 1010.1 - 0.0
17/07:48pm 13.1 2.5 6.7 65 3.1 NNW 52 70 28 38 1010.1 - 0.0
17/07:30pm 13.2 3.0 6.8 65 3.1 NNW 50 65 27 35 1010.6 - 0.0
17/07:01pm 13.1 3.8 7.4 68 2.8 NNW 46 65 25 35 1010.9 - 0.0
17/07:00pm 13.1 3.3 7.2 67 2.9 NNW 48 65 26 35 1010.8 - 0.0
17/06:51pm 13.1 3.0 7.4 68 2.8 NNW 50 69 27 37 1010.7 - 0.0
17/06:30pm 13.2 1.7 7.1 66 3.0 NNW 57 70 31 38 1010.4 - 0.0
17/06:00pm 13.4 2.1 7.1 65 3.1 NNW 56 70 30 38 1010.9 1010.7 0.0
17/05:41pm 13.5 2.9 7.0 65 3.2 NNW 52 74 28 40 1010.9 - 0.0
17/05:30pm 13.5 3.7 7.2 65 3.1 NNW 48 63 26 34 1011.4 - 0.0
17/05:00pm 13.6 4.1 6.8 63 3.3 NNW 46 67 25 36 1011.6 - 0.0
17/04:53pm 13.7 4.1 6.2 60 3.6 NNW 46 65 25 35 1011.4 - 0.0
17/04:30pm 13.8 3.5 6.6 62 3.5 NNW 50 65 27 35 1011.5 - 0.0
17/04:00pm 13.7 2.8 7.4 65 3.1 NNW 54 72 29 39 1011.8 - 0.0
17/03:54pm 13.7 3.2 7.2 65 3.2 NNW 52 72 28 39 1011.8 - 0.0
17/03:30pm 13.9 2.7 7.7 66 3.1 NNW 56 70 30 38 1012.3 - 0.0
17/03:00pm 13.9 1.1 7.9 67 3.0 W 65 87 35 47 1012.0 1012.2 0.0
17/02:50pm 14.2 1.2 7.1 62 3.5 NNW 65 83 35 45 1011.8 - 0.0
17/02:30pm 14.2 1.9 7.1 62 3.5 NNW 61 76 33 41 1012.4 - 0.0
17/02:00pm 13.5 1.3 7.4 66 3.0 NNW 61 80 33 43 1012.8 - 0.0
17/01:30pm 13.5 1.6 7.2 65 3.1 NNW 59 74 32 40 1013.5 - 0.0
17/01:00pm 13.8 0.7 6.6 62 3.5 NNW 65 83 35 45 1013.8 - 0.0
17/12:59pm 13.8 0.7 6.6 62 3.5 NNW 65 83 35 45 1013.7 - 0.0
17/12:30pm 13.9 1.2 6.7 62 3.5 NNW 63 76 34 41 1014.0 - 0.0
17/12:00pm 13.6 4.2 7.1 65 3.2 NNW 46 69 25 37 1015.1 1015.3 0.0
17/11:30am 13.0 3.1 6.8 66 3.0 NNW 48 72 26 39 1015.4 - 0.0
17/11:00am 12.9 4.1 7.4 69 2.7 NNW 43 61 23 33 1016.2 - 0.0
17/10:59am 12.9 4.1 7.4 69 2.7 NNW 43 61 23 33 1016.2 - 0.0
17/10:30am 12.6 3.9 8.4 75 2.1 NNW 44 56 24 30 1017.0 - 0.0
17/10:00am 11.6 4.0 9.2 85 1.2 NNW 39 54 21 29 1017.4 - 0.0
17/09:30am 11.7 3.7 9.1 84 1.3 NNW 41 52 22 28 1017.4 - 0.0
17/09:00am 12.0 4.2 8.4 78 1.8 NW 39 50 21 27 1017.8 1017.7 0.4
17/08:30am 11.6 3.8 8.4 81 1.6 NNW 39 50 21 27 1017.9 - 0.4
17/08:00am 11.6 4.3 8.6 82 1.5 NNW 37 48 20 26 1018.1 - 0.4
17/07:30am 11.5 4.5 8.3 81 1.6 NNW 35 46 19 25 1018.1 - 0.4
17/07:00am 11.4 3.9 7.9 79 1.7 NNW 37 52 20 28 1018.1 - 0.4
17/06:34am 12.0 2.0 7.7 75 2.1 NNW 50 69 27 37 1017.7 - 0.4
17/06:30am 12.2 1.1 7.9 75 2.1 NNW 56 69 30 37 1017.6 - 0.4
17/06:00am 12.0 1.3 6.3 68 2.7 WNW 52 72 28 39 1017.1 1017.1 0.4
17/05:30am 11.9 0.2 6.2 68 2.7 NNW 57 69 31 37 1017.3 - 0.4
17/05:00am 11.9 0.2 6.4 69 2.6 NNW 57 67 31 36 1017.3 - 0.4
17/04:30am 11.8 -0.6 4.8 62 3.2 NNW 59 69 32 37 1017.1 - 0.4
17/04:08am 11.8 1.5 4.8 62 3.2 NNW 48 67 26 36 1017.2 - 0.4
17/04:00am 11.6 0.9 6.3 70 2.5 NNW 52 63 28 34 1017.2 - 0.4
17/03:30am 11.5 1.8 5.7 67 2.7 NNW 46 59 25 32 1017.7 - 0.4
17/03:00am 11.8 1.0 6.1 68 2.7 NNW 52 61 28 33 1017.7 1017.7 0.4
17/02:30am 11.7 -0.2 5.2 64 3.0 NNW 57 67 31 36 1017.8 - 0.4
17/02:00am 11.6 -0.1 5.1 64 3.0 NW 56 67 30 36 1018.6 - 0.4
17/01:30am 11.4 -1.2 3.8 59 3.4 NW 59 65 32 35 1018.7 - 0.4
17/01:00am 11.3 -1.2 3.9 60 3.3 NW 59 69 32 37 1018.9 - 0.4
17/12:30am 11.2 -0.9 4.1 61 3.2 NW 57 65 31 35 1019.0 - 0.4
17/12:00am 11.1 -1.8 4.2 62 3.1 NW 61 67 33 36 1019.1 1019.2 0.4
 
Date/Time
EST
Temp
°C
App
Temp
°C
Dew
Point
Rel
Hum
%
Delta-T
°C
Wind Press
QNH
hPa
Press
MSL
hPa
Rain
since 9 am
mm
Dir
 
Spd
km/h
Gust
km/h
Spd
kts
Gust
kts
16/11:30pm 11.3 -2.4 5.5 67 2.7 NW 67 74 36 40 1019.2 - 0.4
16/11:00pm 11.3 -1.4 5.0 65 2.9 NW 61 69 33 37 1019.2 - 0.4
16/10:30pm 11.4 -1.9 4.1 61 3.3 NW 63 72 34 39 1019.3 - 0.4
16/10:00pm 11.4 -1.9 4.1 61 3.3 NW 63 72 34 39 1019.3 - 0.4
16/09:30pm 11.3 -2.6 4.5 63 3.1 NW 67 72 36 39 1019.0 - 0.4
16/09:00pm 11.4 -1.8 6.3 71 2.4 NW 65 72 35 39 1019.2 1019.2 0.4
16/08:30pm 11.5 -1.2 6.7 72 2.3 NW 63 74 34 40 1018.7 - 0.4
16/08:00pm 11.4 -1.3 6.8 73 2.2 NW 63 69 34 37 1018.6 - 0.4
16/07:30pm 11.3 0.2 8.9 85 1.2 NW 57 63 31 34 1018.5 - 0.4
16/07:00pm 11.7 -0.5 9.1 84 1.3 NW 63 72 34 39 1018.2 - 0.4
16/06:30pm 11.5 -0.7 8.9 84 1.3 NW 63 70 34 38 1017.9 - 0.4
16/06:00pm 11.4 -1.5 9.2 86 1.1 NW 67 74 36 40 1017.5 1017.5 0.4
16/05:30pm 11.2 -1.0 10.2 94 0.5 NW 65 74 35 40 1017.2 - 0.4
16/05:00pm 11.0 -3.5 9.4 90 0.8 NW 76 82 41 44 1016.4 - 0.4
16/04:30pm 11.2 -3.1 10.4 95 0.4 NW 76 83 41 45 1016.8 - 0.4
16/04:00pm 10.9 -3.8 10.3 96 0.3 NW 78 89 42 48 1016.9 - 0.2
16/03:43pm 11.4 -3.3 10.2 92 0.6 NW 78 106 42 57 1015.7 - 0.0
16/03:30pm 12.7 -1.0 8.3 74 2.2 NNW 70 82 38 44 1016.0 - 0.0
16/03:00pm 12.7 0.7 8.1 73 2.3 W 61 80 33 43 1016.2 1016.2 0.0
16/02:30pm 12.8 -0.8 7.7 71 2.5 NNW 69 83 37 45 1016.0 - 0.0
16/02:00pm 12.5 -1.2 7.6 72 2.4 NNW 69 83 37 45 1016.5 - 0.0
16/01:30pm 12.2 -2.0 7.9 75 2.1 NNW 72 85 39 46 1016.4 - 0.0
16/01:00pm 12.2 -0.3 7.9 75 2.1 NNW 63 76 34 41 1017.1 - 0.0
16/12:30pm 12.4 -1.7 6.6 68 2.8 NW 70 82 38 44 1016.9 - 0.0
16/12:00pm 12.1 0.4 6.2 67 2.8 NNW 57 65 31 35 1017.8 1017.7 0.0
16/11:30am 12.2 -2.4 5.8 65 3.0 NNW 72 87 39 47 1017.2 - 0.0
16/11:23am 12.1 -2.6 5.5 64 3.1 NW 72 87 39 47 1016.8 - 0.0
16/11:00am 11.9 0.0 5.2 63 3.1 NNW 57 67 31 36 1017.5 - 0.0
16/10:30am 11.6 0.6 7.0 73 2.2 NNW 54 63 29 34 1017.9 - 0.0
16/10:00am 11.5 -1.9 5.2 65 2.9 NW 65 72 35 39 1017.8 - 0.0

Other Formats:

Comma delimited format used in spreadsheet applications
http://www.bom.gov.au/fwo/IDT60801/IDT60801.94962.axf

JavaScript Object Notation format (JSON) in row-major order
http://www.bom.gov.au/fwo/IDT60801/IDT60801.94962.json